sensor_id;sensor_type;location;lat;lon;timestamp;P1;durP1;ratioP1;P2;durP2;ratioP2
71648;SDS011;70112;45.624;11.760;2023-07-13T00:01:28;4.60;;;2.20;;
71648;SDS011;70112;45.624;11.760;2023-07-13T00:03:55;5.10;;;2.20;;
71648;SDS011;70112;45.624;11.760;2023-07-13T00:06:21;4.70;;;2.00;;
71648;SDS011;70112;45.624;11.760;2023-07-13T00:08:47;7.70;;;2.10;;
71648;SDS011;70112;45.624;11.760;2023-07-13T00:11:15;5.80;;;2.10;;
71648;SDS011;70112;45.624;11.760;2023-07-13T00:13:41;7.10;;;2.20;;
71648;SDS011;70112;45.624;11.760;2023-07-13T00:16:09;5.60;;;2.20;;
71648;SDS011;70112;45.624;11.760;2023-07-13T00:18:36;6.00;;;2.00;;
71648;SDS011;70112;45.624;11.760;2023-07-13T00:21:03;6.90;;;2.00;;
71648;SDS011;70112;45.624;11.760;2023-07-13T00:23:33;10.10;;;1.90;;
71648;SDS011;70112;45.624;11.760;2023-07-13T00:26:03;5.70;;;2.10;;
71648;SDS011;70112;45.624;11.760;2023-07-13T00:28:29;7.60;;;2.40;;
71648;SDS011;70112;45.624;11.760;2023-07-13T00:30:55;7.70;;;2.30;;
71648;SDS011;70112;45.624;11.760;2023-07-13T00:33:21;5.40;;;2.10;;
71648;SDS011;70112;45.624;11.760;2023-07-13T00:35:48;9.70;;;2.80;;
71648;SDS011;70112;45.624;11.760;2023-07-13T00:38:15;7.20;;;3.00;;
71648;SDS011;70112;45.624;11.760;2023-07-13T00:40:41;4.40;;;2.10;;
71648;SDS011;70112;45.624;11.760;2023-07-13T00:43:18;4.40;;;2.10;;
71648;SDS011;70112;45.624;11.760;2023-07-13T00:48:13;5.60;;;2.20;;
71648;SDS011;70112;45.624;11.760;2023-07-13T00:50:41;4.20;;;2.00;;
71648;SDS011;70112;45.624;11.760;2023-07-13T00:53:08;3.80;;;2.10;;
71648;SDS011;70112;45.624;11.760;2023-07-13T00:55:35;6.30;;;2.70;;
71648;SDS011;70112;45.624;11.760;2023-07-13T00:58:01;3.90;;;1.90;;
71648;SDS011;70112;45.624;11.760;2023-07-13T01:00:30;6.60;;;2.70;;
71648;SDS011;70112;45.624;11.760;2023-07-13T01:02:56;7.20;;;2.60;;
71648;SDS011;70112;45.624;11.760;2023-07-13T01:05:22;4.00;;;2.20;;
71648;SDS011;70112;45.624;11.760;2023-07-13T01:07:51;5.30;;;2.30;;
71648;SDS011;70112;45.624;11.760;2023-07-13T01:10:21;8.80;;;2.80;;
71648;SDS011;70112;45.624;11.760;2023-07-13T01:12:47;5.60;;;2.70;;
71648;SDS011;70112;45.624;11.760;2023-07-13T01:21:02;12.30;;;2.80;;
71648;SDS011;70112;45.624;11.760;2023-07-13T01:23:30;7.50;;;2.70;;
71648;SDS011;70112;45.624;11.760;2023-07-13T01:25:58;9.10;;;3.00;;
71648;SDS011;70112;45.624;11.760;2023-07-13T01:28:26;5.40;;;2.70;;
71648;SDS011;70112;45.624;11.760;2023-07-13T01:30:54;5.30;;;2.60;;
71648;SDS011;70112;45.624;11.760;2023-07-13T01:33:21;5.50;;;2.50;;
71648;SDS011;70112;45.624;11.760;2023-07-13T01:35:47;8.40;;;2.40;;
71648;SDS011;70112;45.624;11.760;2023-07-13T01:38:20;6.90;;;2.90;;
71648;SDS011;70112;45.624;11.760;2023-07-13T01:40:48;8.00;;;2.80;;
71648;SDS011;70112;45.624;11.760;2023-07-13T01:43:13;5.40;;;2.50;;
71648;SDS011;70112;45.624;11.760;2023-07-13T01:45:39;9.00;;;3.00;;
71648;SDS011;70112;45.624;11.760;2023-07-13T01:48:05;7.80;;;2.70;;
71648;SDS011;70112;45.624;11.760;2023-07-13T01:50:34;5.60;;;2.70;;
71648;SDS011;70112;45.624;11.760;2023-07-13T01:52:59;7.30;;;2.90;;
71648;SDS011;70112;45.624;11.760;2023-07-13T01:55:25;5.40;;;2.60;;
71648;SDS011;70112;45.624;11.760;2023-07-13T01:57:50;5.50;;;2.40;;
71648;SDS011;70112;45.624;11.760;2023-07-13T02:00:17;6.00;;;2.80;;
71648;SDS011;70112;45.624;11.760;2023-07-13T02:02:42;5.80;;;2.80;;
71648;SDS011;70112;45.624;11.760;2023-07-13T02:05:08;5.60;;;2.40;;
71648;SDS011;70112;45.624;11.760;2023-07-13T02:07:34;3.70;;;2.30;;
71648;SDS011;70112;45.624;11.760;2023-07-13T02:09:59;8.90;;;2.80;;
71648;SDS011;70112;45.624;11.760;2023-07-13T02:12:25;6.50;;;2.30;;
71648;SDS011;70112;45.624;11.760;2023-07-13T02:14:50;4.90;;;2.40;;
71648;SDS011;70112;45.624;11.760;2023-07-13T02:17:16;4.70;;;2.50;;
71648;SDS011;70112;45.624;11.760;2023-07-13T02:19:41;9.50;;;2.60;;
71648;SDS011;70112;45.624;11.760;2023-07-13T02:22:07;5.10;;;2.50;;
71648;SDS011;70112;45.624;11.760;2023-07-13T02:24:32;4.40;;;2.50;;
71648;SDS011;70112;45.624;11.760;2023-07-13T02:26:58;3.30;;;2.20;;
71648;SDS011;70112;45.624;11.760;2023-07-13T02:29:23;4.30;;;2.50;;
71648;SDS011;70112;45.624;11.760;2023-07-13T02:31:49;5.70;;;2.70;;
71648;SDS011;70112;45.624;11.760;2023-07-13T02:34:15;6.30;;;2.50;;
71648;SDS011;70112;45.624;11.760;2023-07-13T02:36:40;6.50;;;2.80;;
71648;SDS011;70112;45.624;11.760;2023-07-13T02:39:07;4.60;;;2.50;;
71648;SDS011;70112;45.624;11.760;2023-07-13T02:41:32;5.30;;;2.70;;
71648;SDS011;70112;45.624;11.760;2023-07-13T02:43:59;6.90;;;2.80;;
71648;SDS011;70112;45.624;11.760;2023-07-13T02:46:33;6.20;;;2.80;;
71648;SDS011;70112;45.624;11.760;2023-07-13T02:49:00;6.90;;;3.10;;
71648;SDS011;70112;45.624;11.760;2023-07-13T02:51:26;4.90;;;2.70;;
71648;SDS011;70112;45.624;11.760;2023-07-13T02:53:52;6.70;;;3.10;;
71648;SDS011;70112;45.624;11.760;2023-07-13T02:56:24;9.30;;;2.70;;
71648;SDS011;70112;45.624;11.760;2023-07-13T02:58:51;7.30;;;3.30;;
71648;SDS011;70112;45.624;11.760;2023-07-13T03:01:17;5.30;;;3.30;;
71648;SDS011;70112;45.624;11.760;2023-07-13T03:03:48;7.00;;;3.00;;
71648;SDS011;70112;45.624;11.760;2023-07-13T03:06:15;5.20;;;2.90;;
71648;SDS011;70112;45.624;11.760;2023-07-13T03:08:42;5.50;;;3.50;;
71648;SDS011;70112;45.624;11.760;2023-07-13T03:11:11;7.40;;;3.20;;
71648;SDS011;70112;45.624;11.760;2023-07-13T03:13:41;7.20;;;3.70;;
71648;SDS011;70112;45.624;11.760;2023-07-13T03:16:08;5.50;;;3.10;;
71648;SDS011;70112;45.624;11.760;2023-07-13T03:18:36;6.30;;;3.40;;
71648;SDS011;70112;45.624;11.760;2023-07-13T03:21:03;10.00;;;3.40;;
71648;SDS011;70112;45.624;11.760;2023-07-13T03:23:29;5.00;;;3.50;;
71648;SDS011;70112;45.624;11.760;2023-07-13T03:26:09;5.20;;;3.20;;
71648;SDS011;70112;45.624;11.760;2023-07-13T03:28:41;5.80;;;3.60;;
71648;SDS011;70112;45.624;11.760;2023-07-13T03:31:11;8.40;;;3.60;;
71648;SDS011;70112;45.624;11.760;2023-07-13T03:33:38;5.80;;;3.20;;
71648;SDS011;70112;45.624;11.760;2023-07-13T03:36:05;4.30;;;2.80;;
71648;SDS011;70112;45.624;11.760;2023-07-13T03:38:32;3.70;;;3.00;;
71648;SDS011;70112;45.624;11.760;2023-07-13T03:40:57;5.70;;;3.30;;
71648;SDS011;70112;45.624;11.760;2023-07-13T03:43:23;6.20;;;3.40;;
71648;SDS011;70112;45.624;11.760;2023-07-13T03:45:48;5.40;;;3.20;;
71648;SDS011;70112;45.624;11.760;2023-07-13T03:48:14;6.00;;;3.30;;
71648;SDS011;70112;45.624;11.760;2023-07-13T03:50:40;7.30;;;3.40;;
71648;SDS011;70112;45.624;11.760;2023-07-13T03:53:05;4.20;;;3.10;;
71648;SDS011;70112;45.624;11.760;2023-07-13T03:55:31;5.10;;;3.30;;
71648;SDS011;70112;45.624;11.760;2023-07-13T03:58:00;5.80;;;2.50;;
71648;SDS011;70112;45.624;11.760;2023-07-13T04:00:46;5.90;;;3.50;;
71648;SDS011;70112;45.624;11.760;2023-07-13T04:03:12;3.60;;;2.80;;
71648;SDS011;70112;45.624;11.760;2023-07-13T04:05:37;7.60;;;2.90;;
71648;SDS011;70112;45.624;11.760;2023-07-13T04:08:06;7.00;;;3.20;;
71648;SDS011;70112;45.624;11.760;2023-07-13T04:10:31;8.10;;;3.00;;
71648;SDS011;70112;45.624;11.760;2023-07-13T04:12:57;5.70;;;2.80;;
71648;SDS011;70112;45.624;11.760;2023-07-13T04:15:22;9.40;;;2.90;;
71648;SDS011;70112;45.624;11.760;2023-07-13T04:17:48;8.20;;;3.50;;
71648;SDS011;70112;45.624;11.760;2023-07-13T04:20:13;7.80;;;3.30;;
71648;SDS011;70112;45.624;11.760;2023-07-13T04:22:39;7.10;;;3.60;;
71648;SDS011;70112;45.624;11.760;2023-07-13T04:25:04;10.20;;;3.50;;
71648;SDS011;70112;45.624;11.760;2023-07-13T04:27:30;3.80;;;3.00;;
71648;SDS011;70112;45.624;11.760;2023-07-13T04:29:56;6.90;;;3.40;;
71648;SDS011;70112;45.624;11.760;2023-07-13T04:32:21;11.40;;;3.60;;
71648;SDS011;70112;45.624;11.760;2023-07-13T04:34:47;9.40;;;3.40;;
71648;SDS011;70112;45.624;11.760;2023-07-13T04:37:12;7.00;;;3.60;;
71648;SDS011;70112;45.624;11.760;2023-07-13T04:39:38;6.20;;;3.20;;
71648;SDS011;70112;45.624;11.760;2023-07-13T04:42:04;6.00;;;3.30;;
71648;SDS011;70112;45.624;11.760;2023-07-13T04:44:30;5.80;;;2.70;;
71648;SDS011;70112;45.624;11.760;2023-07-13T04:46:55;6.80;;;3.60;;
71648;SDS011;70112;45.624;11.760;2023-07-13T04:49:21;5.10;;;3.00;;
71648;SDS011;70112;45.624;11.760;2023-07-13T04:51:46;10.50;;;3.70;;
71648;SDS011;70112;45.624;11.760;2023-07-13T04:54:12;4.40;;;3.30;;
71648;SDS011;70112;45.624;11.760;2023-07-13T04:56:37;6.40;;;3.60;;
71648;SDS011;70112;45.624;11.760;2023-07-13T04:59:03;5.30;;;3.40;;
71648;SDS011;70112;45.624;11.760;2023-07-13T05:01:28;5.60;;;2.50;;
71648;SDS011;70112;45.624;11.760;2023-07-13T05:03:54;4.70;;;2.70;;
71648;SDS011;70112;45.624;11.760;2023-07-13T05:06:22;6.00;;;2.60;;
71648;SDS011;70112;45.624;11.760;2023-07-13T05:08:48;5.70;;;2.90;;
71648;SDS011;70112;45.624;11.760;2023-07-13T05:11:13;7.40;;;2.60;;
71648;SDS011;70112;45.624;11.760;2023-07-13T05:13:39;11.80;;;3.20;;
71648;SDS011;70112;45.624;11.760;2023-07-13T05:16:05;8.10;;;3.20;;
71648;SDS011;70112;45.624;11.760;2023-07-13T05:18:33;5.80;;;2.80;;
71648;SDS011;70112;45.624;11.760;2023-07-13T05:21:07;4.90;;;2.40;;
71648;SDS011;70112;45.624;11.760;2023-07-13T05:23:35;4.60;;;2.40;;
71648;SDS011;70112;45.624;11.760;2023-07-13T05:26:02;5.70;;;2.50;;
71648;SDS011;70112;45.624;11.760;2023-07-13T05:28:29;3.30;;;2.50;;
71648;SDS011;70112;45.624;11.760;2023-07-13T05:30:56;6.60;;;2.40;;
71648;SDS011;70112;45.624;11.760;2023-07-13T05:33:22;5.60;;;2.30;;
71648;SDS011;70112;45.624;11.760;2023-07-13T05:35:49;9.30;;;2.40;;
71648;SDS011;70112;45.624;11.760;2023-07-13T05:38:14;7.70;;;2.50;;
71648;SDS011;70112;45.624;11.760;2023-07-13T05:40:43;20.40;;;4.40;;
71648;SDS011;70112;45.624;11.760;2023-07-13T05:43:09;9.20;;;3.00;;
71648;SDS011;70112;45.624;11.760;2023-07-13T05:45:35;6.70;;;2.50;;
71648;SDS011;70112;45.624;11.760;2023-07-13T05:48:00;10.00;;;3.10;;
71648;SDS011;70112;45.624;11.760;2023-07-13T05:50:26;6.70;;;2.30;;
71648;SDS011;70112;45.624;11.760;2023-07-13T05:52:52;6.40;;;2.90;;
71648;SDS011;70112;45.624;11.760;2023-07-13T05:55:18;7.00;;;2.70;;
71648;SDS011;70112;45.624;11.760;2023-07-13T05:57:44;4.30;;;2.30;;
71648;SDS011;70112;45.624;11.760;2023-07-13T06:00:10;5.40;;;2.60;;
71648;SDS011;70112;45.624;11.760;2023-07-13T06:02:36;4.50;;;2.60;;
71648;SDS011;70112;45.624;11.760;2023-07-13T06:05:02;5.70;;;2.90;;
71648;SDS011;70112;45.624;11.760;2023-07-13T06:07:28;8.80;;;2.50;;
71648;SDS011;70112;45.624;11.760;2023-07-13T06:09:53;7.70;;;2.70;;
71648;SDS011;70112;45.624;11.760;2023-07-13T06:12:19;6.20;;;2.30;;
71648;SDS011;70112;45.624;11.760;2023-07-13T06:14:44;4.50;;;2.80;;
71648;SDS011;70112;45.624;11.760;2023-07-13T06:17:10;6.90;;;2.30;;
71648;SDS011;70112;45.624;11.760;2023-07-13T06:19:35;5.40;;;2.40;;
71648;SDS011;70112;45.624;11.760;2023-07-13T06:22:01;6.10;;;2.60;;
71648;SDS011;70112;45.624;11.760;2023-07-13T06:24:26;6.10;;;3.10;;
71648;SDS011;70112;45.624;11.760;2023-07-13T06:26:52;6.40;;;2.50;;
71648;SDS011;70112;45.624;11.760;2023-07-13T06:29:17;7.20;;;3.30;;
71648;SDS011;70112;45.624;11.760;2023-07-13T06:31:43;5.90;;;3.00;;
71648;SDS011;70112;45.624;11.760;2023-07-13T06:34:08;9.10;;;2.90;;
71648;SDS011;70112;45.624;11.760;2023-07-13T06:36:34;5.70;;;3.10;;
71648;SDS011;70112;45.624;11.760;2023-07-13T06:39:02;5.00;;;2.50;;
71648;SDS011;70112;45.624;11.760;2023-07-13T06:41:28;4.30;;;2.90;;
71648;SDS011;70112;45.624;11.760;2023-07-13T06:43:54;5.00;;;2.60;;
71648;SDS011;70112;45.624;11.760;2023-07-13T06:46:22;6.20;;;2.70;;
71648;SDS011;70112;45.624;11.760;2023-07-13T06:48:49;8.90;;;3.00;;
71648;SDS011;70112;45.624;11.760;2023-07-13T06:51:15;8.50;;;2.80;;
71648;SDS011;70112;45.624;11.760;2023-07-13T06:53:40;6.50;;;3.00;;
71648;SDS011;70112;45.624;11.760;2023-07-13T06:56:07;6.10;;;2.40;;
71648;SDS011;70112;45.624;11.760;2023-07-13T06:58:34;9.20;;;2.90;;
71648;SDS011;70112;45.624;11.760;2023-07-13T07:00:59;9.40;;;3.20;;
71648;SDS011;70112;45.624;11.760;2023-07-13T07:03:25;8.20;;;3.00;;
71648;SDS011;70112;45.624;11.760;2023-07-13T07:05:50;8.60;;;3.10;;
71648;SDS011;70112;45.624;11.760;2023-07-13T07:08:16;6.40;;;2.60;;
71648;SDS011;70112;45.624;11.760;2023-07-13T07:10:41;6.70;;;2.10;;
71648;SDS011;70112;45.624;11.760;2023-07-13T07:13:07;6.40;;;2.70;;
71648;SDS011;70112;45.624;11.760;2023-07-13T07:15:34;14.90;;;3.60;;
71648;SDS011;70112;45.624;11.760;2023-07-13T07:18:00;7.70;;;3.40;;
71648;SDS011;70112;45.624;11.760;2023-07-13T07:20:26;9.50;;;2.80;;
71648;SDS011;70112;45.624;11.760;2023-07-13T07:22:52;7.40;;;2.70;;
71648;SDS011;70112;45.624;11.760;2023-07-13T07:25:18;4.00;;;2.60;;
71648;SDS011;70112;45.624;11.760;2023-07-13T07:27:44;6.70;;;2.40;;
71648;SDS011;70112;45.624;11.760;2023-07-13T07:30:11;7.90;;;2.10;;
71648;SDS011;70112;45.624;11.760;2023-07-13T07:32:37;3.60;;;1.90;;
71648;SDS011;70112;45.624;11.760;2023-07-13T07:35:03;4.70;;;2.30;;
71648;SDS011;70112;45.624;11.760;2023-07-13T07:37:29;3.30;;;1.90;;
71648;SDS011;70112;45.624;11.760;2023-07-13T07:39:55;7.10;;;2.10;;
71648;SDS011;70112;45.624;11.760;2023-07-13T07:42:20;7.00;;;2.20;;
71648;SDS011;70112;45.624;11.760;2023-07-13T07:44:46;5.50;;;2.40;;
71648;SDS011;70112;45.624;11.760;2023-07-13T07:47:11;7.50;;;2.30;;
71648;SDS011;70112;45.624;11.760;2023-07-13T07:49:37;5.50;;;2.40;;
71648;SDS011;70112;45.624;11.760;2023-07-13T07:52:03;11.50;;;2.90;;
71648;SDS011;70112;45.624;11.760;2023-07-13T07:54:29;8.30;;;2.80;;
71648;SDS011;70112;45.624;11.760;2023-07-13T07:56:55;5.30;;;3.00;;
71648;SDS011;70112;45.624;11.760;2023-07-13T07:59:20;7.70;;;2.60;;
71648;SDS011;70112;45.624;11.760;2023-07-13T08:01:46;6.40;;;2.40;;
71648;SDS011;70112;45.624;11.760;2023-07-13T08:04:13;8.30;;;2.80;;
71648;SDS011;70112;45.624;11.760;2023-07-13T08:06:39;6.20;;;3.00;;
71648;SDS011;70112;45.624;11.760;2023-07-13T08:09:04;5.80;;;2.60;;
71648;SDS011;70112;45.624;11.760;2023-07-13T08:11:30;7.20;;;3.10;;
71648;SDS011;70112;45.624;11.760;2023-07-13T08:13:55;10.00;;;3.20;;
71648;SDS011;70112;45.624;11.760;2023-07-13T08:36:25;7.60;;;4.80;;
71648;SDS011;70112;45.624;11.760;2023-07-13T08:38:52;7.80;;;4.70;;
71648;SDS011;70112;45.624;11.760;2023-07-13T08:41:18;7.00;;;5.10;;
71648;SDS011;70112;45.624;11.760;2023-07-13T08:43:47;11.30;;;5.10;;
71648;SDS011;70112;45.624;11.760;2023-07-13T08:46:24;8.90;;;5.10;;
71648;SDS011;70112;45.624;11.760;2023-07-13T08:48:53;8.30;;;5.10;;
71648;SDS011;70112;45.624;11.760;2023-07-13T08:54:21;12.20;;;5.50;;
71648;SDS011;70112;45.624;11.760;2023-07-13T08:56:48;10.00;;;5.00;;
71648;SDS011;70112;45.624;11.760;2023-07-13T08:59:20;8.70;;;5.60;;
71648;SDS011;70112;45.624;11.760;2023-07-13T09:01:58;7.30;;;5.70;;
71648;SDS011;70112;45.624;11.760;2023-07-13T09:04:48;10.20;;;6.30;;
71648;SDS011;70112;45.624;11.760;2023-07-13T09:15:29;12.50;;;7.90;;
71648;SDS011;70112;45.624;11.760;2023-07-13T09:18:01;13.70;;;7.80;;
71648;SDS011;70112;45.624;11.760;2023-07-13T09:20:49;9.90;;;6.50;;
71648;SDS011;70112;45.624;11.760;2023-07-13T09:23:21;8.60;;;5.90;;
71648;SDS011;70112;45.624;11.760;2023-07-13T09:25:51;8.80;;;6.60;;
71648;SDS011;70112;45.624;11.760;2023-07-13T09:28:24;8.80;;;6.10;;
71648;SDS011;70112;45.624;11.760;2023-07-13T09:31:03;11.20;;;6.40;;
71648;SDS011;70112;45.624;11.760;2023-07-13T09:33:37;10.10;;;7.10;;
71648;SDS011;70112;45.624;11.760;2023-07-13T09:36:21;10.80;;;6.10;;
71648;SDS011;70112;45.624;11.760;2023-07-13T09:38:58;15.70;;;7.00;;
71648;SDS011;70112;45.624;11.760;2023-07-13T09:41:57;8.70;;;6.20;;
71648;SDS011;70112;45.624;11.760;2023-07-13T09:44:37;9.40;;;6.00;;
71648;SDS011;70112;45.624;11.760;2023-07-13T09:47:16;11.20;;;6.30;;
71648;SDS011;70112;45.624;11.760;2023-07-13T09:49:43;13.90;;;6.80;;
71648;SDS011;70112;45.624;11.760;2023-07-13T09:52:15;10.20;;;6.50;;
71648;SDS011;70112;45.624;11.760;2023-07-13T09:54:45;12.30;;;6.20;;
71648;SDS011;70112;45.624;11.760;2023-07-13T09:57:19;11.20;;;6.60;;
71648;SDS011;70112;45.624;11.760;2023-07-13T09:59:47;8.40;;;6.20;;
71648;SDS011;70112;45.624;11.760;2023-07-13T10:02:35;11.00;;;6.80;;
71648;SDS011;70112;45.624;11.760;2023-07-13T10:05:06;15.70;;;6.80;;
71648;SDS011;70112;45.624;11.760;2023-07-13T10:07:43;15.70;;;6.10;;
71648;SDS011;70112;45.624;11.760;2023-07-13T10:10:20;11.90;;;6.60;;
71648;SDS011;70112;45.624;11.760;2023-07-13T10:12:48;18.40;;;7.10;;
71648;SDS011;70112;45.624;11.760;2023-07-13T10:15:17;18.90;;;6.90;;
71648;SDS011;70112;45.624;11.760;2023-07-13T10:17:47;12.80;;;7.20;;
71648;SDS011;70112;45.624;11.760;2023-07-13T10:20:14;8.00;;;6.60;;
71648;SDS011;70112;45.624;11.760;2023-07-13T10:22:49;12.70;;;6.80;;
71648;SDS011;70112;45.624;11.760;2023-07-13T10:25:22;9.50;;;6.40;;
71648;SDS011;70112;45.624;11.760;2023-07-13T10:27:56;12.80;;;6.60;;
71648;SDS011;70112;45.624;11.760;2023-07-13T10:30:30;19.20;;;6.90;;
71648;SDS011;70112;45.624;11.760;2023-07-13T10:33:00;11.70;;;5.80;;
71648;SDS011;70112;45.624;11.760;2023-07-13T10:35:29;8.40;;;4.90;;
71648;SDS011;70112;45.624;11.760;2023-07-13T10:38:04;6.70;;;4.90;;
71648;SDS011;70112;45.624;11.760;2023-07-13T10:40:41;8.70;;;4.30;;
71648;SDS011;70112;45.624;11.760;2023-07-13T10:43:18;7.90;;;3.90;;
71648;SDS011;70112;45.624;11.760;2023-07-13T10:45:52;7.40;;;3.60;;
71648;SDS011;70112;45.624;11.760;2023-07-13T10:48:20;9.40;;;3.50;;
71648;SDS011;70112;45.624;11.760;2023-07-13T10:50:50;7.20;;;2.70;;
71648;SDS011;70112;45.624;11.760;2023-07-13T10:53:21;6.90;;;2.50;;
71648;SDS011;70112;45.624;11.760;2023-07-13T10:58:21;5.90;;;2.30;;
71648;SDS011;70112;45.624;11.760;2023-07-13T11:00:49;6.60;;;2.50;;
71648;SDS011;70112;45.624;11.760;2023-07-13T11:03:29;4.50;;;2.50;;
71648;SDS011;70112;45.624;11.760;2023-07-13T11:06:07;3.90;;;2.60;;
71648;SDS011;70112;45.624;11.760;2023-07-13T11:08:51;4.80;;;2.50;;
71648;SDS011;70112;45.624;11.760;2023-07-13T11:14:04;4.10;;;2.40;;
71648;SDS011;70112;45.624;11.760;2023-07-13T11:16:50;6.50;;;2.80;;
71648;SDS011;70112;45.624;11.760;2023-07-13T11:25:00;6.50;;;2.40;;
71648;SDS011;70112;45.624;11.760;2023-07-13T11:27:42;3.80;;;2.00;;
71648;SDS011;70112;45.624;11.760;2023-07-13T11:33:11;5.00;;;2.10;;
71648;SDS011;70112;45.624;11.760;2023-07-13T11:35:49;4.70;;;1.70;;
71648;SDS011;70112;45.624;11.760;2023-07-13T11:38:23;4.40;;;1.70;;
71648;SDS011;70112;45.624;11.760;2023-07-13T11:41:23;5.60;;;2.00;;
71648;SDS011;70112;45.624;11.760;2023-07-13T11:44:04;3.80;;;1.90;;
71648;SDS011;70112;45.624;11.760;2023-07-13T11:46:32;3.70;;;2.10;;
71648;SDS011;70112;45.624;11.760;2023-07-13T11:48:58;6.90;;;1.80;;
71648;SDS011;70112;45.624;11.760;2023-07-13T11:51:27;7.30;;;2.20;;
71648;SDS011;70112;45.624;11.760;2023-07-13T11:53:57;7.90;;;1.90;;
71648;SDS011;70112;45.624;11.760;2023-07-13T11:56:27;6.90;;;2.30;;
71648;SDS011;70112;45.624;11.760;2023-07-13T11:58:55;5.00;;;2.30;;
71648;SDS011;70112;45.624;11.760;2023-07-13T12:01:25;3.90;;;2.10;;
71648;SDS011;70112;45.624;11.760;2023-07-13T12:04:01;6.70;;;2.00;;
71648;SDS011;70112;45.624;11.760;2023-07-13T12:06:31;9.20;;;2.30;;
71648;SDS011;70112;45.624;11.760;2023-07-13T12:09:08;5.60;;;2.20;;
71648;SDS011;70112;45.624;11.760;2023-07-13T12:11:40;6.30;;;3.10;;
71648;SDS011;70112;45.624;11.760;2023-07-13T12:14:13;10.60;;;2.90;;
71648;SDS011;70112;45.624;11.760;2023-07-13T12:16:45;5.50;;;2.70;;
71648;SDS011;70112;45.624;11.760;2023-07-13T12:19:25;10.50;;;2.60;;
71648;SDS011;70112;45.624;11.760;2023-07-13T12:21:54;6.40;;;2.70;;
71648;SDS011;70112;45.624;11.760;2023-07-13T12:24:24;11.40;;;3.50;;
71648;SDS011;70112;45.624;11.760;2023-07-13T12:26:51;8.40;;;3.10;;
71648;SDS011;70112;45.624;11.760;2023-07-13T12:29:17;9.10;;;3.40;;
71648;SDS011;70112;45.624;11.760;2023-07-13T12:31:45;8.50;;;3.40;;
71648;SDS011;70112;45.624;11.760;2023-07-13T12:36:54;8.20;;;3.20;;
71648;SDS011;70112;45.624;11.760;2023-07-13T12:39:43;5.50;;;3.10;;
71648;SDS011;70112;45.624;11.760;2023-07-13T12:42:27;6.90;;;2.90;;
71648;SDS011;70112;45.624;11.760;2023-07-13T12:45:03;9.30;;;3.00;;
71648;SDS011;70112;45.624;11.760;2023-07-13T12:47:42;9.60;;;3.70;;
71648;SDS011;70112;45.624;11.760;2023-07-13T12:50:22;13.00;;;3.40;;
71648;SDS011;70112;45.624;11.760;2023-07-13T12:53:01;7.70;;;3.00;;
71648;SDS011;70112;45.624;11.760;2023-07-13T12:55:29;8.00;;;2.70;;
71648;SDS011;70112;45.624;11.760;2023-07-13T12:57:59;9.50;;;3.50;;
71648;SDS011;70112;45.624;11.760;2023-07-13T13:02:58;8.40;;;4.10;;
71648;SDS011;70112;45.624;11.760;2023-07-13T13:05:29;10.20;;;4.40;;
71648;SDS011;70112;45.624;11.760;2023-07-13T13:07:55;15.00;;;4.30;;
71648;SDS011;70112;45.624;11.760;2023-07-13T13:10:21;13.60;;;5.10;;
71648;SDS011;70112;45.624;11.760;2023-07-13T13:12:47;12.20;;;4.40;;
71648;SDS011;70112;45.624;11.760;2023-07-13T13:15:13;12.10;;;4.40;;
71648;SDS011;70112;45.624;11.760;2023-07-13T13:17:39;11.20;;;4.00;;
71648;SDS011;70112;45.624;11.760;2023-07-13T13:20:19;10.40;;;3.80;;
71648;SDS011;70112;45.624;11.760;2023-07-13T13:22:46;6.80;;;4.10;;
71648;SDS011;70112;45.624;11.760;2023-07-13T13:25:13;8.00;;;3.80;;
71648;SDS011;70112;45.624;11.760;2023-07-13T13:27:41;9.30;;;3.80;;
71648;SDS011;70112;45.624;11.760;2023-07-13T13:30:14;9.20;;;3.80;;
71648;SDS011;70112;45.624;11.760;2023-07-13T13:32:45;10.10;;;3.40;;
71648;SDS011;70112;45.624;11.760;2023-07-13T13:35:14;9.60;;;3.70;;
71648;SDS011;70112;45.624;11.760;2023-07-13T13:37:41;9.00;;;3.80;;
71648;SDS011;70112;45.624;11.760;2023-07-13T13:40:14;9.40;;;3.80;;
71648;SDS011;70112;45.624;11.760;2023-07-13T13:42:41;8.20;;;3.40;;
71648;SDS011;70112;45.624;11.760;2023-07-13T13:45:09;8.10;;;3.60;;
71648;SDS011;70112;45.624;11.760;2023-07-13T13:47:35;9.00;;;3.50;;
71648;SDS011;70112;45.624;11.760;2023-07-13T13:50:13;9.00;;;3.60;;
71648;SDS011;70112;45.624;11.760;2023-07-13T13:52:43;10.70;;;4.00;;
71648;SDS011;70112;45.624;11.760;2023-07-13T13:55:19;7.90;;;3.50;;
71648;SDS011;70112;45.624;11.760;2023-07-13T13:57:46;6.30;;;3.70;;
71648;SDS011;70112;45.624;11.760;2023-07-13T14:00:14;10.00;;;3.80;;
71648;SDS011;70112;45.624;11.760;2023-07-13T14:02:46;7.00;;;4.10;;
71648;SDS011;70112;45.624;11.760;2023-07-13T14:07:47;8.30;;;3.90;;
71648;SDS011;70112;45.624;11.760;2023-07-13T14:10:15;9.80;;;4.40;;
71648;SDS011;70112;45.624;11.760;2023-07-13T14:12:43;7.80;;;4.10;;
71648;SDS011;70112;45.624;11.760;2023-07-13T14:15:20;10.50;;;3.70;;
71648;SDS011;70112;45.624;11.760;2023-07-13T14:17:47;7.60;;;3.90;;
71648;SDS011;70112;45.624;11.760;2023-07-13T14:20:17;9.10;;;3.90;;
71648;SDS011;70112;45.624;11.760;2023-07-13T14:22:44;11.30;;;3.80;;
71648;SDS011;70112;45.624;11.760;2023-07-13T14:25:14;12.30;;;4.20;;
71648;SDS011;70112;45.624;11.760;2023-07-13T14:27:41;10.60;;;4.50;;
71648;SDS011;70112;45.624;11.760;2023-07-13T14:30:18;11.50;;;4.80;;
71648;SDS011;70112;45.624;11.760;2023-07-13T14:32:46;8.00;;;4.40;;
71648;SDS011;70112;45.624;11.760;2023-07-13T14:35:15;10.60;;;4.80;;
71648;SDS011;70112;45.624;11.760;2023-07-13T14:37:42;15.80;;;4.90;;
71648;SDS011;70112;45.624;11.760;2023-07-13T14:40:25;9.30;;;3.70;;
71648;SDS011;70112;45.624;11.760;2023-07-13T14:42:54;11.30;;;4.10;;
71648;SDS011;70112;45.624;11.760;2023-07-13T14:45:20;14.60;;;4.50;;
71648;SDS011;70112;45.624;11.760;2023-07-13T14:47:46;9.00;;;4.30;;
71648;SDS011;70112;45.624;11.760;2023-07-13T14:52:47;7.50;;;3.00;;
71648;SDS011;70112;45.624;11.760;2023-07-13T14:55:15;5.50;;;2.60;;
71648;SDS011;70112;45.624;11.760;2023-07-13T14:57:42;4.50;;;2.60;;
71648;SDS011;70112;45.624;11.760;2023-07-13T15:00:22;4.60;;;2.50;;
71648;SDS011;70112;45.624;11.760;2023-07-13T15:02:51;5.20;;;2.60;;
71648;SDS011;70112;45.624;11.760;2023-07-13T15:05:21;4.00;;;2.30;;
71648;SDS011;70112;45.624;11.760;2023-07-13T15:07:50;7.60;;;2.30;;
